Flight Track Log - Related Links

Times and Time Zones

All times are in EDT time to prevent confusion due to time zone crossing. See the AFR6725 flight status page for this flight to view local times or setup timezone preferences in your user account.

Time Position Orientation Groundspeed Altitude Reporting Facility
EDT Latitude Longitude Course Direction KTS MPH feet Rate Location/Type
Sat 03:46:00 AM 19.4597 -98.9523 78° East  Level FlightAware Approximate
Sat 03:47:00 AM 19.4936 -98.8359 71° East  Level FlightAware Approximate
Sat 03:48:00 AM 19.5321 -98.7205 70° East  Level FlightAware Approximate
Sat 03:49:00 AM 19.5592 -98.6029 72° East  Level FlightAware Approximate
Sat 03:50:00 AM 19.5942 -98.4862 72° East  Level FlightAware Approximate
Sat 03:51:00 AM 19.6438 -98.3818 North  Level FlightAware Approximate
Sat 03:52:00 AM 19.7581 -98.3651 11° North  Level FlightAware Approximate
Sat 03:53:00 AM 19.8703 -98.3377 17° North  Level FlightAware Approximate
Sat 03:54:00 AM 19.9844 -98.3207 North  Level FlightAware Approximate
Sat 03:55:00 AM 20.0981 -98.3004 11° North  Level FlightAware Approximate
Sat 03:56:00 AM 20.2114 -98.2769 12° North  Level FlightAware Approximate
Sat 03:57:00 AM 20.3241 -98.2509 12° North  Level FlightAware Approximate
Sat 03:58:00 AM 20.4368 -98.2242 13° North  Level FlightAware Approximate
Sat 03:59:00 AM 20.5509 -98.2110 North  Level FlightAware Approximate
Sat 04:00:00 AM 20.6647 -98.1904 11° North  Level FlightAware Approximate
Sat 04:01:00 AM 20.7781 -98.1678 11° North  Level FlightAware Approximate
Sat 04:02:00 AM 20.8915 -98.1451 11° North  Level FlightAware Approximate
Sat 04:03:00 AM 21.0049 -98.1224 11° North  Level FlightAware Approximate
Sat 04:04:00 AM 21.1183 -98.0996 11° North  Level FlightAware Approximate
Sat 04:05:00 AM 21.2186 -98.0783 11° North  Level FlightAware Approximate
Sat 04:06:00 AM 21.3188 -98.0570 11° North  Level FlightAware Approximate
Sat 04:07:00 AM 21.4191 -98.0356 11° North  Level FlightAware Approximate
Sat 04:08:00 AM 21.5194 -98.0142 11° North  Level FlightAware Approximate
Sat 04:09:00 AM 21.6196 -97.9927 11° North  Level FlightAware Approximate
Sat 04:10:00 AM 21.7199 -97.9713 11° North  Level FlightAware Approximate
Sat 04:11:00 AM 21.8201 -97.9498 11° North  Level FlightAware Approximate
Sat 04:12:00 AM 21.9203 -97.9282 11° North  Level FlightAware Approximate
Sat 04:13:00 AM 22.0206 -97.9067 11° North  Level FlightAware Approximate
Sat 04:14:00 AM 22.1208 -97.8851 11° North  Level FlightAware Approximate
Sat 04:15:00 AM 22.2211 -97.8634 11° North  Level FlightAware Approximate
Sat 04:16:00 AM 22.3212 -97.8415 12° North  Level FlightAware Approximate
Sat 04:17:00 AM 22.4213 -97.8189 12° North  Level FlightAware Approximate
Sat 04:18:00 AM 22.5214 -97.7964 12° North  Level FlightAware Approximate
Sat 04:19:00 AM 22.6214 -97.7738 12° North  Level FlightAware Approximate
Sat 04:20:00 AM 22.7215 -97.7511 12° North  Level FlightAware Approximate
Sat 04:21:00 AM 22.8216 -97.7284 12° North  Level FlightAware Approximate
Sat 04:22:00 AM 22.9216 -97.7057 12° North  Level FlightAware Approximate
Sat 04:23:00 AM 23.0217 -97.6830 12° North  Level FlightAware Approximate
Sat 04:24:00 AM 23.1217 -97.6602 12° North  Level FlightAware Approximate
Sat 04:25:00 AM 23.2218 -97.6374 12° North  Level FlightAware Approximate
Sat 04:26:00 AM 23.3218 -97.6143 12° North  Level FlightAware Approximate
Sat 04:26:39 AM 23.8800 -97.4960 12° North 438 504 41,000  Level FlightAware ADS-B
Sat 04:27:00 AM 23.4218 -97.5913 12° North  Level FlightAware Approximate
Sat 04:27:16 AM 23.9520 -97.4790 12° North 438 504 41,000  Level FlightAware ADS-B
Sat 04:28:04 AM 24.0510 -97.4560 12° North 439 505 41,000  Level FlightAware ADS-B
Sat 04:28:42 AM 24.1270 -97.4380 12° North 440 506 41,000  Level FlightAware ADS-B
Sat 04:29:10 AM 24.1840 -97.4250 12° North 440 506 41,000  Level FlightAware ADS-B
Sat 04:29:57 AM 24.2630 -97.4060 12° North 439 505 41,000  Level FlightAware ADS-B
Sat 04:30:35 AM 24.3500 -97.3860 12° North 438 504 41,000  Level FlightAware ADS-B
Sat 04:31:19 AM 24.4330 -97.3660 12° North 438 504 41,000  Level FlightAware ADS-B
Sat 04:32:00 AM 24.5210 -97.3450 12° North 438 504 41,000  Level FlightAware ADS-B
Sat 04:32:44 AM 24.6080 -97.3250 12° North 438 504 41,000  Level FlightAware ADS-B
Sat 04:33:26 AM 24.6930 -97.3050 12° North 438 504 41,000  Level FlightAware ADS-B
Sat 04:34:07 AM 24.7680 -97.2870 12° North 439 505 41,000  Level FlightAware ADS-B
Sat 04:34:43 AM 24.8350 -97.2710 12° North 439 505 41,000  Level FlightAware ADS-B
Sat 04:35:23 AM 24.9160 -97.2520 12° North 440 506 41,000  Level FlightAware ADS-B
Sat 04:36:04 AM 25.0070 -97.2300 12° North 441 507 41,000  Level FlightAware ADS-B
Sat 04:36:40 AM 25.0800 -97.2130 12° North 441 507 41,000  Level FlightAware ADS-B
Sat 04:37:24 AM 25.1680 -97.1920 12° North 442 509 41,000  Level FlightAware ADS-B
Sat 04:38:04 AM 25.2470 -97.1730 12° North 443 510 41,000  Level FlightAware ADS-B
Sat 04:38:41 AM 25.3150 -97.1570 12° North 443 510 41,000  Level FlightAware ADS-B
Sat 04:39:20 AM 25.3930 -97.1380 12° North 444 511 41,000  Level FlightAware ADS-B
Sat 04:40:03 AM 25.4840 -97.1160 12° North 445 512 41,000  Level FlightAware ADS-B
Sat 04:40:46 AM 25.5740 -97.0950 12° North 446 513 41,000  Level FlightAware ADS-B
Sat 04:41:30 AM 25.6620 -97.0750 12° North 447 514 41,000  Level FlightAware ADS-B
Sat 04:42:10 AM 25.7450 -97.0570 11° North 448 516 41,000  Level FlightAware ADS-B
Sat 04:42:34 AM 25.7942 -97.0462 11° North 449 517 41,000  Level FlightAware ADS-B
Sat 04:43:10 AM 25.8679 -97.0296 11° North 450 518 41,000  Level FlightAware ADS-B
Sat 04:43:44 AM 25.9377 -97.0136 12° North 451 519 41,000  Level FlightAware ADS-B
Sat 04:44:52 AM 26.0760 -96.9820 12° North 451 519 41,000  Level FlightAware ADS-B
Sat 04:45:32 AM 26.1590 -96.9630 12° North 452 520 41,000  Level FlightAware ADS-B
Sat 04:46:18 AM 26.2530 -96.9420 11° North 451 519 41,000  Level FlightAware ADS-B
Sat 04:46:57 AM 26.3300 -96.9240 12° North 450 518 41,000  Level FlightAware ADS-B
Sat 04:47:37 AM 26.4140 -96.9050 11° North 450 518 41,000  Level FlightAware ADS-B
Sat 04:47:55 AM 26.4520 -96.8964 11° North 451 519 41,000  Level FlightAware ADS-B
Sat 04:48:35 AM 26.5328 -96.8778 12° North 451 519 41,000  Level FlightAware ADS-B
Sat 04:49:09 AM 26.6032 -96.8616 12° North 453 521 41,000  Level FlightAware ADS-B
Sat 04:49:40 AM 26.6678 -96.8468 12° North 453 521 41,000  Level FlightAware ADS-B
Sat 04:50:11 AM 26.7312 -96.8323 12° North 453 521 41,000  Level FlightAware ADS-B
Sat 04:50:56 AM 26.8241 -96.8110 12° North 453 521 41,000  Level FlightAware ADS-B
Sat 04:51:30 AM 26.8936 -96.7949 12° North 453 521 41,000  Level FlightAware ADS-B
Sat 04:52:02 AM 26.9588 -96.7798 12° North 453 521 41,000  Level FlightAware ADS-B
Sat 04:52:52 AM 27.0622 -96.7560 12° North 453 521 41,000  Level FlightAware ADS-B
Sat 04:53:29 AM 27.1393 -96.7381 12° North 454 522 41,000  Level FlightAware ADS-B
Sat 04:54:00 AM 27.2034 -96.7233 12° North 454 522 41,000  Level FlightAware ADS-B
Sat 04:54:31 AM 27.2668 -96.7086 12° North 453 521 41,000  Level FlightAware ADS-B
Sat 04:55:02 AM 27.3312 -96.6937 12° North 453 521 41,000  Level FlightAware ADS-B
Sat 04:55:33 AM 27.3945 -96.6789 12° North 454 522 41,000  Level FlightAware ADS-B
Sat 04:56:08 AM 27.4666 -96.6620 12° North 455 524 41,000  Level FlightAware ADS-B
Sat 04:56:41 AM 27.5340 -96.6463 12° North 455 524 41,000  Level FlightAware ADS-B
Sat 04:57:12 AM 27.5972 -96.6315 12° North 453 521 41,000  Level FlightAware ADS-B
Sat 04:57:42 AM 27.6599 -96.6168 12° North 454 522 41,000  Level FlightAware ADS-B
Sat 04:58:12 AM 27.7222 -96.6023 12° North 456 525 41,000  Level FlightAware ADS-B
Sat 04:58:43 AM 27.7856 -96.5875 12° North 457 526 41,000  Level FlightAware ADS-B
Sat 04:59:14 AM 27.8494 -96.5725 12° North 457 526 41,000  Level FlightAware ADS-B
Sat 04:59:44 AM 27.9122 -96.5578 12° North 458 527 41,000 -393 Level FlightAware ADS-B
Sat 05:00:15 AM 27.9756 -96.5428 12° North 462 532 40,600 -1,869 Descending FlightAware ADS-B
Sat 05:00:45 AM 28.0399 -96.5277 12° North 462 532 39,100 -3,246 Descending FlightAware ADS-B
Sat 05:01:16 AM 28.1048 -96.5125 12° North 469 540 37,300 -3,387 Descending FlightAware ADS-B
Sat 05:01:47 AM 28.1705 -96.4969 12° North 471 542 35,600 -2,168 Descending FlightAware ADS-B
Sat 05:04:38 AM 28.5090 -96.4170 12° North 445 512 30,000 -1,534 Descending FlightAware ADS-B
Sat 05:05:26 AM 28.5910 -96.3990 11° North 445 512 30,000 -3,181 Level FlightAware ADS-B
Sat 05:06:01 AM 28.6830 -96.3750 13° North 423 487 25,600 -4,154 Descending FlightAware ADS-B
Sat 05:06:57 AM 28.7810 -96.3520 12° North 412 474 23,700 -2,188 Descending FlightAware ADS-B
Sat 05:07:37 AM 28.8600 -96.3330 12° North 405 466 22,100 -1,732 Descending FlightAware ADS-B
Sat 05:08:34 AM 28.9620 -96.3090 12° North 400 460 20,900 -774 Descending FlightAware ADS-B
Sat 05:09:10 AM 29.0180 -96.2970 11° North 400 460 20,900 -3,107 Level FlightAware ADS-B
Sat 05:09:30 AM 29.0688 -96.2828 14° North 387 445 18,000 -4,800 Descending FlightAware ADS-B
Sat 05:10:00 AM 29.1221 -96.2701 12° North 385 443 16,900 -2,075 Descending FlightAware ADS-B
Sat 05:12:09 AM 29.3424 -96.2169 12° North 373 429 12,500 -2,038 Descending FlightAware ADS-B
Sat 05:12:39 AM 29.3933 -96.2047 12° North 368 423 11,500 -1,900 Descending FlightAware ADS-B
Sat 05:13:09 AM 29.4435 -96.1924 12° North 362 417 10,600 -1,400 Descending FlightAware ADS-B
Sat 05:13:39 AM 29.4916 -96.1808 12° North 343 395 10,100 -955 Descending FlightAware ADS-B
Sat 05:13:53 AM 29.5125 -96.1756 12° North 335 386 9,900 -706 Descending FlightAware ADS-B
Sat 05:13:56 AM 29.5169 -96.1743 14° North 335 386 9,900  Level FlightAware ADS-B
Sat 05:13:59 AM 29.5213 -96.1726 19° North 335 386 9,900  Level FlightAware ADS-B
Sat 05:14:02 AM 29.5265 -96.1703 21° North 334 384 9,900  Level FlightAware ADS-B
Sat 05:14:06 AM 29.5313 -96.1677 25° Northeast 334 384 9,900  Level FlightAware ADS-B
Sat 05:14:10 AM 29.5367 -96.1641 30° Northeast 333 383 9,900  Level FlightAware ADS-B
Sat 05:14:14 AM 29.5416 -96.1604 33° Northeast 334 384 9,900  Level FlightAware ADS-B
Sat 05:14:18 AM 29.5465 -96.1560 38° Northeast 334 384 9,900  Level FlightAware ADS-B
Sat 05:14:21 AM 29.5503 -96.1520 42° Northeast 333 383 9,900  Level FlightAware ADS-B
Sat 05:14:25 AM 29.5545 -96.1470 46° Northeast 333 383 9,900  Level FlightAware ADS-B
Sat 05:14:28 AM 29.5575 -96.1428 51° Northeast 333 383 9,900  Level FlightAware ADS-B
Sat 05:14:32 AM 29.5611 -96.1370 54° Northeast 333 383 9,900  Level FlightAware ADS-B
Sat 05:14:47 AM 29.5732 -96.1145 58° Northeast 332 382 9,900  Level FlightAware ADS-B
Sat 05:15:03 AM 29.5852 -96.0910 60° Northeast 332 382 9,900  Level FlightAware ADS-B
Sat 05:15:18 AM 29.5965 -96.0678 61° Northeast 331 381 9,900  Level FlightAware ADS-B
Sat 05:15:33 AM 29.6079 -96.0445 61° Northeast 332 382 9,900  Level FlightAware ADS-B
Sat 05:15:48 AM 29.6192 -96.0214 61° Northeast 333 383 9,900  Level FlightAware ADS-B
Sat 05:16:03 AM 29.6308 -95.9981 60° Northeast 332 382 9,900  Level FlightAware ADS-B
Sat 05:16:19 AM 29.6429 -95.9739 60° Northeast 332 382 9,900  Level FlightAware ADS-B
Sat 05:16:34 AM 29.6546 -95.9508 60° Northeast 332 382 9,900  Level FlightAware ADS-B
Sat 05:16:49 AM 29.6663 -95.9277 60° Northeast 329 379 9,900  Level FlightAware ADS-B
Sat 05:17:04 AM 29.6777 -95.9052 60° Northeast 315 362 9,900 194 Level FlightAware ADS-B
Sat 05:17:20 AM 29.6885 -95.8839 60° Northeast 302 348 10,000 194 Climbing FlightAware ADS-B
Sat 05:17:35 AM 29.6989 -95.8631 60° Northeast 298 343 10,000 -200 Level FlightAware ADS-B
Sat 05:17:50 AM 29.7094 -95.8422 60° Northeast 298 343 9,900 -200 Descending FlightAware ADS-B
Sat 05:18:05 AM 29.7200 -95.8213 60° Northeast 301 346 9,900  Level FlightAware ADS-B
Sat 05:18:20 AM 29.7305 -95.8004 60° Northeast 300 345 9,900  Level FlightAware ADS-B
Sat 05:18:36 AM 29.7416 -95.7782 60° Northeast 299 344 9,900  Level FlightAware ADS-B
Sat 05:18:53 AM 29.7531 -95.7553 60° Northeast 301 346 9,900  Level FlightAware ADS-B
Sat 05:19:08 AM 29.7634 -95.7345 60° Northeast 300 345 9,900  Level FlightAware ADS-B
Sat 05:19:24 AM 29.7743 -95.7128 60° Northeast 300 345 9,900 -194 Level FlightAware ADS-B
Sat 05:19:39 AM 29.7851 -95.6911 60° Northeast 297 342 9,800 -774 Descending FlightAware ADS-B
Sat 05:19:55 AM 29.7955 -95.6704 60° Northeast 296 341 9,500 -1,355 Descending FlightAware ADS-B
Sat 05:20:10 AM 29.8062 -95.6487 60° Northeast 294 338 9,100 -1,313 Descending FlightAware ADS-B
Sat 05:20:59 AM 29.8389 -95.5834 60° Northeast 289 333 8,100 -1,227 Descending FlightAware ADS-B
Sat 05:21:38 AM 29.8651 -95.5310 60° Northeast 286 329 7,300 -1,200 Descending FlightAware ADS-B
Sat 05:21:54 AM 29.8748 -95.5111 61° Northeast 284 327 7,000 -1,313 Descending FlightAware ADS-B
Sat 05:22:10 AM 29.8856 -95.4896 60° Northeast 282 325 6,600 -1,364 Descending FlightAware ADS-B
Sat 05:22:16 AM 29.8890 -95.4821 62° Northeast 281 323 6,500 -1,286 Descending FlightAware ADS-B
Sat 05:22:24 AM 29.8927 -95.4711 71° East 281 323 6,300 -1,286 Descending FlightAware ADS-B
Sat 05:22:30 AM 29.8947 -95.4626 75° East 280 322 6,200 -1,000 Descending FlightAware ADS-B
Sat 05:22:42 AM 29.8965 -95.4447 83° East 280 322 6,000 -261 Descending FlightAware ADS-B
Sat 05:23:39 AM 29.8966 -95.3581 90° East 280 322 5,900 -108 Descending FlightAware ADS-B
Sat 05:24:33 AM 29.8966 -95.2785 90° East 277 319 5,800 -417 Descending FlightAware ADS-B
Sat 05:24:51 AM 29.8967 -95.2524 90° East 276 318 5,400 -1,375 Descending FlightAware ADS-B
Sat 05:25:21 AM 29.8970 -95.2077 89° East 274 315 4,700 -1,333 Descending FlightAware ADS-B
Sat 05:25:36 AM 29.8970 -95.1859 90° East 273 314 4,400 -1,200 Descending FlightAware ADS-B
Sat 05:25:51 AM 29.8970 -95.1637 90° East 273 314 4,100 -968 Descending FlightAware ADS-B
Sat 05:26:07 AM 29.8972 -95.1411 89° East 274 315 3,900 -200 Descending FlightAware ADS-B
Sat 05:26:51 AM 29.8978 -95.0776 89° East 272 313 3,900  Level FlightAware ADS-B
Sat 05:27:05 AM 29.8981 -95.0570 89° East 270 311 3,900  Level FlightAware ADS-B
Sat 05:27:11 AM 29.8985 -95.0486 87° East 269 310 3,900  Level FlightAware ADS-B
Sat 05:27:15 AM 29.8989 -95.0428 85° East 267 307 3,900  Level FlightAware ADS-B
Sat 05:27:18 AM 29.8995 -95.0381 82° East 266 306 3,900  Level FlightAware ADS-B
Sat 05:27:21 AM 29.9003 -95.0339 78° East 264 304 3,900  Level FlightAware ADS-B
Sat 05:27:25 AM 29.9017 -95.0285 73° East 262 302 3,900  Level FlightAware ADS-B
Sat 05:27:28 AM 29.9031 -95.0247 67° East 261 300 3,900  Level FlightAware ADS-B
Sat 05:27:32 AM 29.9050 -95.0207 61° Northeast 258 297 3,900  Level FlightAware ADS-B
Sat 05:27:35 AM 29.9075 -95.0167 54° Northeast 256 295 3,900  Level FlightAware ADS-B
Sat 05:27:39 AM 29.9106 -95.0131 45° Northeast 254 292 3,900  Level FlightAware ADS-B
Sat 05:27:45 AM 29.9163 -95.0083 36° Northeast 252 290 3,900  Level FlightAware ADS-B
Sat 05:27:50 AM 29.9212 -95.0056 26° Northeast 251 289 3,900  Level FlightAware ADS-B
Sat 05:27:53 AM 29.9248 -95.0042 19° North 249 287 3,900  Level FlightAware ADS-B
Sat 05:27:57 AM 29.9290 -95.0030 14° North 247 284 3,900 857 Level FlightAware ADS-B
Sat 05:28:00 AM 29.9331 -95.0022 10° North 246 283 4,000 667 Climbing FlightAware ADS-B
Sat 05:28:06 AM 29.9394 -95.0015 North 242 278 4,000 -316 Level FlightAware ADS-B
Sat 05:28:19 AM 29.9534 -95.0039 342° North 234 269 3,900 -300 Descending FlightAware ADS-B
Sat 05:28:26 AM 29.9602 -95.0081 329° Northwest 230 265 3,900  Level FlightAware ADS-B
Sat 05:28:37 AM 29.9680 -95.0177 309° West 227 261 3,900  Level FlightAware ADS-B
Sat 05:28:44 AM 29.9715 -95.0248 297° West 227 261 3,900  Level FlightAware ADS-B
Sat 05:28:47 AM 29.9728 -95.0281 294° West 227 261 3,900  Level FlightAware ADS-B
Sat 05:28:50 AM 29.9741 -95.0319 292° West 228 262 3,900 429 Level FlightAware ADS-B
Sat 05:29:01 AM 29.9773 -95.0444 285° West 228 262 4,000 273 Climbing FlightAware ADS-B
Sat 05:29:12 AM 29.9784 -95.0575 272° West 228 262 4,000  Level FlightAware ADS-B
Sat 05:29:18 AM 29.9784 -95.0650 270° West 226 260 4,000 -750 Level FlightAware ADS-B
Sat 05:29:36 AM 29.9774 -95.0865 267° West 221 254 3,700 -1,200 Descending FlightAware ADS-B
Sat 05:29:43 AM 29.9771 -95.0951 268° West 220 253 3,500 -1,116 Descending FlightAware ADS-B
Sat 05:30:19 AM 29.9775 -95.1356 271° West 207 238 2,900 -1,105 Descending FlightAware ADS-B
Sat 05:30:59 AM 29.9777 -95.1783 270° West 193 222 2,100 -1,031 Descending FlightAware ADS-B
Sat 05:31:23 AM 29.9776 -95.2028 270° West 178 205 1,800 -837 Descending FlightAware ADS-B
Sat 05:31:42 AM 29.9776 -95.2198 270° West 166 191 1,500 -1,000 Descending FlightAware ADS-B
Sat 05:31:53 AM 29.9776 -95.2295 270° West 162 186 1,300 -889 Descending FlightAware ADS-B
Sat 05:32:09 AM 29.9776 -95.2425 270° West 157 181 1,100 -750 Descending FlightAware ADS-B
Sat 05:32:17 AM 29.9776 -95.2493 270° West 156 180 1,000 -1,059 Descending FlightAware ADS-B
Sat 05:32:26 AM 29.9776 -95.2569 270° West 156 180 800 -1,000 Descending FlightAware ADS-B
Sat 05:32:35 AM 29.9776 -95.2644 270° West 156 180 700 -632 Descending FlightAware ADS-B
Sat 05:32:45 AM 29.9776 -95.2730 270° West 156 180 600 -632 Descending FlightAware ADS-B
Sat 05:32:54 AM 29.9776 -95.2803 270° West 157 181 500 -720 Descending FlightAware ADS-B
Sat 05:33:10 AM 29.9776 -95.2938 270° West 160 184 300 -923 Descending FlightAware ADS-B
Sat 05:33:20 AM 29.9776 -95.3023 270° West 162 186 100 -1,200 Descending FlightAware ADS-B

Login

Don't have an account? Register now (free) for customized features, flight alerts, and more!